Time;durP1;ratioP1;P1;durP2;ratioP2;P2;SDS_P1;SDS_P2;PMS_P1;PMS_P2;Temp;Humidity;BMP_temperature;BMP_pressure;BME280_temperature;BME280_humidity;BME280_pressure;Samples;Min_cycle;Max_cycle;Signal;HPM_P1;HPM_P2
2023/05/03 00:01:44;;;;;;;1.10;1.00;;;6.10;23.90;;;;;;5021535;28;20430;-72
2023/05/03 00:04:13;;;;;;;0.70;0.70;;;6.10;1.00;;;;;;5026127;28;20435;-73
2023/05/03 00:06:43;;;;;;;1.10;0.88;;;6.10;1.00;;;;;;5025816;28;20431;-72
2023/05/03 00:09:13;;;;;;;0.90;0.90;;;6.10;1.00;;;;;;5027305;28;20541;-72
2023/05/03 00:11:40;;;;;;;1.80;0.68;;;6.10;1.00;;;;;;5024076;28;20775;-73
2023/05/03 00:14:08;;;;;;;0.80;0.80;;;6.10;1.00;;;;;;5026812;28;20453;-72
2023/05/03 00:16:35;;;;;;;3.40;1.00;;;6.10;1.00;;;;;;5019973;28;20436;-72
2023/05/03 00:19:02;;;;;;;4.70;1.23;;;6.10;1.00;;;;;;5024638;28;20947;-72
2023/05/03 00:21:29;;;;;;;0.80;0.80;;;6.10;1.00;;;;;;5020516;28;20514;-72
2023/05/03 00:23:56;;;;;;;0.70;0.52;;;6.00;1.00;;;;;;5022580;28;20435;-72
2023/05/03 00:26:22;;;;;;;0.75;0.65;;;6.00;1.00;;;;;;5025265;28;20431;-72
2023/05/03 00:28:49;;;;;;;0.70;0.70;;;5.80;1.00;;;;;;5025629;28;20960;-72
2023/05/03 00:31:16;;;;;;;1.58;1.33;;;5.70;99.90;;;;;;5021807;28;20435;-72
2023/05/03 00:33:43;;;;;;;2.70;1.35;;;5.70;99.90;;;;;;5031168;28;20431;-72
2023/05/03 00:36:14;;;;;;;0.85;0.85;;;5.70;99.90;;;;;;5030730;28;20435;-72
2023/05/03 00:38:41;;;;;;;0.80;0.80;;;5.70;99.90;;;;;;5019637;28;20529;-72
2023/05/03 00:41:09;;;;;;;3.58;1.10;;;5.70;99.90;;;;;;5016530;28;20472;-72
2023/05/03 00:43:36;;;;;;;0.77;0.77;;;5.60;99.90;;;;;;5005478;28;20798;-72
2023/05/03 00:46:05;;;;;;;1.52;0.88;;;5.50;99.90;;;;;;5022049;28;20860;-72
2023/05/03 00:48:42;;;;;;;1.80;1.10;;;5.50;99.90;;;;;;5018684;28;20515;-73
2023/05/03 00:51:11;;;;;;;1.10;0.88;;;5.50;99.90;;;;;;5020516;28;20515;-72
2023/05/03 00:53:38;;;;;;;1.10;1.10;;;5.50;99.90;;;;;;5015998;28;20431;-72
2023/05/03 00:56:06;;;;;;;0.70;0.70;;;5.50;99.90;;;;;;5019229;28;20462;-72
2023/05/03 00:58:35;;;;;;;0.75;0.73;;;5.50;99.90;;;;;;5017400;28;20437;-72
2023/05/03 01:01:02;;;;;;;0.57;0.57;;;5.50;99.90;;;;;;5022368;28;20773;-72
2023/05/03 01:03:31;;;;;;;1.33;0.93;;;5.60;99.90;;;;;;5019348;28;21138;-72
2023/05/03 01:06:04;;;;;;;0.75;0.75;;;5.60;99.90;;;;;;5024723;28;20751;-72
2023/05/03 01:08:36;;;;;;;2.60;0.85;;;5.60;99.90;;;;;;5021443;28;20432;-72
2023/05/03 01:11:09;;;;;;;1.10;1.10;;;5.60;99.90;;;;;;5025846;28;20431;-72
2023/05/03 01:13:55;;;;;;;1.13;1.10;;;5.60;99.90;;;;;;5019514;28;20435;-72
2023/05/03 01:16:41;;;;;;;0.85;0.85;;;5.50;99.90;;;;;;5018316;28;20449;-72
2023/05/03 01:19:28;;;;;;;0.80;0.80;;;5.40;99.90;;;;;;5025483;28;20532;-72
2023/05/03 01:22:21;;;;;;;2.10;1.25;;;5.30;99.90;;;;;;5014802;28;20446;-72
2023/05/03 01:25:09;;;;;;;2.30;0.80;;;5.30;99.90;;;;;;5019012;28;20517;-73
2023/05/03 01:27:38;;;;;;;2.83;0.95;;;5.10;1.00;;;;;;5025165;28;20431;-72
2023/05/03 01:30:06;;;;;;;0.95;0.95;;;5.00;1.00;;;;;;5023304;28;20469;-72
2023/05/03 01:32:42;;;;;;;2.42;1.55;;;5.00;99.90;;;;;;5021504;28;20435;-72
2023/05/03 01:35:19;;;;;;;1.30;1.00;;;5.00;99.90;;;;;;5024716;28;20472;-72
2023/05/03 01:37:47;;;;;;;1.05;1.05;;;4.80;99.90;;;;;;5023487;28;20431;-72
2023/05/03 01:40:18;;;;;;;4.10;1.30;;;4.70;99.90;;;;;;5018347;28;20434;-72
2023/05/03 01:42:45;;;;;;;1.23;1.23;;;4.60;1.00;;;;;;5020733;28;20971;-72
2023/05/03 01:45:12;;;;;;;0.55;0.55;;;4.50;58.40;;;;;;5014642;28;20431;-72
2023/05/03 01:47:42;;;;;;;6.40;1.40;;;4.40;99.90;;;;;;5019843;28;20491;-72
2023/05/03 01:50:09;;;;;;;1.90;1.60;;;4.40;1.00;;;;;;5026136;28;20438;-72
2023/05/03 01:52:36;;;;;;;5.20;1.47;;;4.30;1.00;;;;;;5019530;28;20740;-72
2023/05/03 01:55:03;;;;;;;2.42;0.70;;;4.30;99.90;;;;;;5022305;28;20435;-73
2023/05/03 01:57:30;;;;;;;1.00;1.00;;;4.20;1.00;;;;;;5020470;28;20441;-73
2023/05/03 01:59:57;;;;;;;0.85;0.85;;;4.10;1.00;;;;;;5020853;28;20449;-73
2023/05/03 02:02:23;;;;;;;0.68;0.68;;;4.10;99.90;;;;;;5020475;28;20434;-73
2023/05/03 02:04:52;;;;;;;1.77;0.98;;;4.20;1.00;;;;;;5026718;28;20433;-72
2023/05/03 02:07:19;;;;;;;3.20;0.90;;;4.20;99.90;;;;;;5022526;28;20440;-73
2023/05/03 02:09:48;;;;;;;1.85;0.98;;;4.20;99.90;;;;;;5024302;28;20442;-73
2023/05/03 02:12:15;;;;;;;2.67;1.65;;;4.30;94.50;;;;;;5025259;28;20426;-73
2023/05/03 02:14:41;;;;;;;1.02;1.02;;;4.50;1.00;;;;;;5023350;28;20430;-73
2023/05/03 02:17:11;;;;;;;0.80;0.80;;;4.60;1.00;;;;;;5023143;28;20438;-73
2023/05/03 02:19:38;;;;;;;1.13;1.02;;;4.60;99.90;;;;;;5021922;28;20431;-73
2023/05/03 02:22:05;;;;;;;3.35;1.58;;;4.60;99.90;;;;;;5018120;28;20853;-73
2023/05/03 02:24:35;;;;;;;1.48;0.95;;;4.60;99.90;;;;;;5016479;28;20431;-73
2023/05/03 02:27:08;;;;;;;3.40;1.40;;;4.70;99.90;;;;;;5022070;28;20455;-72
2023/05/03 02:29:34;;;;;;;1.00;0.77;;;4.70;1.00;;;;;;5023166;28;20955;-73
2023/05/03 02:32:04;;;;;;;0.82;0.82;;;4.70;1.00;;;;;;5019151;28;20461;-74
2023/05/03 02:34:31;;;;;;;1.00;0.88;;;4.70;1.00;;;;;;5018024;28;20721;-73
2023/05/03 02:36:58;;;;;;;3.20;0.82;;;4.70;1.00;;;;;;5024084;28;20917;-73
2023/05/03 02:39:25;;;;;;;1.45;0.90;;;4.70;99.90;;;;;;5022028;28;20434;-73
2023/05/03 02:41:52;;;;;;;0.68;0.68;;;4.60;99.90;;;;;;5024929;28;20431;-73
2023/05/03 02:44:18;;;;;;;0.85;0.85;;;4.60;1.00;;;;;;5019687;28;20426;-73
2023/05/03 02:46:45;;;;;;;0.55;0.55;;;4.50;1.00;;;;;;5018711;28;20438;-73
2023/05/03 02:49:12;;;;;;;1.40;1.20;;;4.60;1.00;;;;;;5022052;28;20746;-74
2023/05/03 02:51:39;;;;;;;1.80;1.20;;;4.60;1.00;;;;;;5018942;28;20833;-74
2023/05/03 02:54:06;;;;;;;1.38;1.30;;;4.60;1.00;;;;;;5015728;28;20958;-74
2023/05/03 02:56:37;;;;;;;1.15;1.08;;;4.50;99.90;;;;;;5015106;28;20828;-74
2023/05/03 02:59:06;;;;;;;0.90;0.90;;;4.40;1.00;;;;;;5015964;28;20434;-74
2023/05/03 03:01:33;;;;;;;1.35;0.88;;;4.40;55.90;;;;;;5023533;28;20837;-74
2023/05/03 03:04:00;;;;;;;1.10;1.10;;;4.40;39.30;;;;;;5022336;28;20429;-74
2023/05/03 03:06:26;;;;;;;0.80;0.80;;;4.30;1.00;;;;;;5020674;28;20430;-71
2023/05/03 03:08:55;;;;;;;1.50;1.40;;;4.20;99.90;;;;;;5023914;28;20431;-71
2023/05/03 03:11:22;;;;;;;0.90;0.90;;;4.20;99.90;;;;;;5021256;28;20888;-72
2023/05/03 03:13:49;;;;;;;1.50;0.73;;;4.10;99.90;;;;;;5021630;28;20461;-72
2023/05/03 03:16:22;;;;;;;2.03;1.17;;;4.00;1.00;;;;;;5018810;28;20466;-72
2023/05/03 03:18:49;;;;;;;0.77;0.77;;;4.00;1.00;;;;;;5016488;28;20446;-72
2023/05/03 03:21:19;;;;;;;1.20;1.02;;;4.00;1.00;;;;;;5020004;28;20708;-73
2023/05/03 03:23:45;;;;;;;2.53;1.10;;;3.90;99.90;;;;;;5017236;28;20431;-73
2023/05/03 03:26:12;;;;;;;1.60;1.50;;;3.90;99.90;;;;;;5018028;28;20444;-73
2023/05/03 03:28:39;;;;;;;2.75;1.58;;;3.90;99.90;;;;;;5022373;28;20438;-73
2023/05/03 03:31:05;;;;;;;1.10;1.00;;;4.00;99.90;;;;;;5026710;28;20628;-73
2023/05/03 03:33:32;;;;;;;0.77;0.77;;;4.00;99.90;;;;;;5024245;28;20461;-73
2023/05/03 03:36:01;;;;;;;7.80;1.20;;;4.00;1.00;;;;;;5026372;28;20802;-74
2023/05/03 03:38:31;;;;;;;3.50;1.05;;;4.00;1.00;;;;;;5028353;28;20439;-73
2023/05/03 03:40:57;;;;;;;1.30;1.20;;;4.00;1.00;;;;;;5024224;28;20666;-73
2023/05/03 03:43:24;;;;;;;1.38;1.27;;;4.00;1.00;;;;;;5024643;28;20439;-73
2023/05/03 03:45:51;;;;;;;0.70;0.70;;;3.90;1.00;;;;;;5026740;28;20439;-73
2023/05/03 03:48:17;;;;;;;0.80;0.80;;;3.90;1.00;;;;;;5019521;28;21106;-73
2023/05/03 03:50:44;;;;;;;0.90;0.90;;;3.90;50.90;;;;;;5021204;28;20493;-73
2023/05/03 03:53:11;;;;;;;0.70;0.70;;;3.90;1.00;;;;;;5019692;28;20437;-73
2023/05/03 03:55:38;;;;;;;1.05;1.00;;;3.80;1.00;;;;;;5016888;28;20432;-73
2023/05/03 03:58:05;;;;;;;1.40;1.00;;;3.70;99.90;;;;;;5018341;28;20434;-73
2023/05/03 04:00:33;;;;;;;1.50;1.40;;;3.60;99.90;;;;;;5018974;28;20599;-73
2023/05/03 04:03:00;;;;;;;1.25;1.15;;;3.70;1.00;;;;;;5015525;28;21114;-73
2023/05/03 04:05:27;;;;;;;1.60;1.15;;;3.70;1.00;;;;;;5015357;28;20492;-73
2023/05/03 04:07:54;;;;;;;0.70;0.70;;;3.70;99.90;;;;;;5019906;28;20442;-72
2023/05/03 04:10:21;;;;;;;1.00;1.00;;;3.70;38.90;;;;;;5019053;28;20656;-73
2023/05/03 04:12:48;;;;;;;0.82;0.82;;;3.70;30.00;;;;;;5021427;28;20450;-73
2023/05/03 04:15:14;;;;;;;0.90;0.90;;;3.80;40.00;;;;;;5017127;28;20440;-73
2023/05/03 04:17:41;;;;;;;1.58;0.98;;;3.80;1.00;;;;;;5019045;28;20443;-73
2023/05/03 04:20:12;;;;;;;0.70;0.70;;;3.90;1.00;;;;;;5011786;28;20436;-73
2023/05/03 04:22:39;;;;;;;8.80;0.90;;;3.90;99.90;;;;;;5009585;28;20528;-73
2023/05/03 04:25:10;;;;;;;0.70;0.70;;;4.00;1.00;;;;;;5017169;28;20462;-73
2023/05/03 04:27:37;;;;;;;1.45;1.13;;;4.10;99.90;;;;;;5022361;28;20430;-73
2023/05/03 04:30:07;;;;;;;1.10;1.10;;;4.10;99.90;;;;;;5020797;28;20431;-73
2023/05/03 04:32:39;;;;;;;3.80;1.17;;;4.20;99.90;;;;;;5028417;28;20542;-72
2023/05/03 04:35:09;;;;;;;1.13;1.02;;;4.30;1.00;;;;;;5018650;28;20801;-73
2023/05/03 04:37:37;;;;;;;1.90;1.10;;;4.30;1.00;;;;;;5021666;28;20443;-73
2023/05/03 04:40:07;;;;;;;1.77;0.67;;;4.40;1.00;;;;;;5013123;28;20522;-73
2023/05/03 04:42:37;;;;;;;2.00;1.90;;;4.40;99.90;;;;;;5020965;28;20430;-73
2023/05/03 04:45:05;;;;;;;0.35;0.35;;;4.50;99.90;;;;;;5023610;28;20530;-73
2023/05/03 04:47:32;;;;;;;0.75;0.68;;;4.60;99.90;;;;;;5024261;28;20485;-73
2023/05/03 04:49:59;;;;;;;1.38;0.90;;;4.70;1.00;;;;;;5025248;28;20439;-73
2023/05/03 04:52:26;;;;;;;0.80;0.80;;;4.80;99.90;;;;;;5021132;28;20431;-73
2023/05/03 04:54:53;;;;;;;0.70;0.70;;;4.90;99.90;;;;;;5022221;28;20779;-73
2023/05/03 04:57:20;;;;;;;2.03;1.02;;;5.00;99.90;;;;;;5023576;28;20431;-73
2023/05/03 04:59:47;;;;;;;0.77;0.77;;;5.00;99.90;;;;;;5019516;28;20448;-74
2023/05/03 05:02:13;;;;;;;1.17;1.08;;;5.10;99.90;;;;;;5017767;28;20442;-74
2023/05/03 05:04:40;;;;;;;1.80;0.80;;;5.30;26.20;;;;;;5026049;28;20430;-74
2023/05/03 05:07:10;;;;;;;0.70;0.70;;;5.30;1.00;;;;;;5027446;28;20435;-74
2023/05/03 05:09:37;;;;;;;3.70;1.90;;;5.40;1.00;;;;;;5023691;28;20435;-72
2023/05/03 05:12:04;;;;;;;1.50;1.40;;;5.50;1.00;;;;;;5025996;28;20485;-72
2023/05/03 05:14:31;;;;;;;0.57;0.57;;;5.50;1.00;;;;;;5022550;28;20427;-73
2023/05/03 05:16:58;;;;;;;3.55;1.08;;;5.60;1.00;;;;;;5019577;28;20434;-73
2023/05/03 05:19:25;;;;;;;4.32;1.27;;;5.80;1.00;;;;;;5017954;28;20451;-73
2023/05/03 05:21:52;;;;;;;1.13;1.05;;;5.90;1.00;;;;;;5018986;28;20514;-73
2023/05/03 05:24:18;;;;;;;4.40;1.10;;;6.00;1.00;;;;;;5021588;28;20828;-73
2023/05/03 05:26:45;;;;;;;1.23;1.10;;;6.50;1.00;;;;;;5023969;28;20521;-73
2023/05/03 05:29:12;;;;;;;2.22;1.60;;;7.00;99.90;;;;;;5018337;28;20878;-73
2023/05/03 05:31:38;;;;;;;4.37;1.10;;;7.50;99.90;;;;;;5017818;28;20424;-73
2023/05/03 05:34:05;;;;;;;1.27;1.27;;;7.80;99.90;;;;;;5001395;28;20442;-73
2023/05/03 05:36:32;;;;;;;1.15;1.08;;;7.80;99.90;;;;;;5015769;28;20679;-74
2023/05/03 05:38:59;;;;;;;2.00;1.17;;;7.70;99.90;;;;;;5016301;28;20430;-74
2023/05/03 05:41:26;;;;;;;0.87;0.87;;;7.70;99.90;;;;;;5013163;28;20454;-73
2023/05/03 05:43:53;;;;;;;1.20;1.10;;;7.90;99.90;;;;;;5021913;28;20500;-73
2023/05/03 05:46:20;;;;;;;1.10;0.90;;;8.30;99.90;;;;;;5017472;28;20907;-74
2023/05/03 05:48:47;;;;;;;4.07;1.30;;;8.60;99.90;;;;;;5017178;28;20435;-74
2023/05/03 05:51:14;;;;;;;0.70;0.70;;;9.00;99.90;;;;;;5010547;28;20493;-74
2023/05/03 05:53:40;;;;;;;1.25;1.17;;;9.40;99.90;;;;;;5017090;28;20442;-74
2023/05/03 05:56:07;;;;;;;0.80;0.80;;;9.50;99.90;;;;;;5016271;28;20696;-74
2023/05/03 05:58:37;;;;;;;1.98;1.40;;;9.70;99.90;;;;;;5019963;28;20426;-73
2023/05/03 06:01:04;;;;;;;0.98;0.93;;;10.00;99.90;;;;;;5020389;28;20449;-74
2023/05/03 06:03:33;;;;;;;0.63;0.63;;;10.50;99.90;;;;;;5018978;28;20439;-74
2023/05/03 06:06:00;;;;;;;1.10;0.65;;;10.70;99.90;;;;;;5012144;28;20439;-74
2023/05/03 06:08:27;;;;;;;2.10;0.90;;;10.90;99.90;;;;;;5018275;28;20434;-74
2023/05/03 06:10:56;;;;;;;0.70;0.70;;;10.80;99.90;;;;;;5018054;28;20454;-74
2023/05/03 06:13:23;;;;;;;1.00;0.82;;;11.00;99.90;;;;;;5017282;28;20995;-74
2023/05/03 06:15:50;;;;;;;0.68;0.68;;;11.40;99.90;;;;;;5017826;28;20442;-74
2023/05/03 06:18:17;;;;;;;0.63;0.63;;;11.70;99.90;;;;;;5017106;28;20441;-74
2023/05/03 06:20:48;;;;;;;0.80;0.80;;;11.80;99.90;;;;;;5020008;28;20446;-73
2023/05/03 06:23:15;;;;;;;1.10;0.65;;;12.00;99.90;;;;;;5014852;28;20428;-73
2023/05/03 06:25:45;;;;;;;1.02;1.02;;;12.60;99.90;;;;;;5015707;28;20431;-73
2023/05/03 06:28:12;;;;;;;1.80;1.00;;;12.80;99.90;;;;;;5016842;28;20439;-73
2023/05/03 06:30:38;;;;;;;2.55;1.40;;;13.10;99.90;;;;;;5014643;28;20531;-73
2023/05/03 06:33:06;;;;;;;0.70;0.60;;;13.20;99.90;;;;;;5018005;28;20802;-73
2023/05/03 06:35:32;;;;;;;1.75;1.10;;;13.50;99.90;;;;;;5013904;28;20447;-73
2023/05/03 06:37:59;;;;;;;1.30;1.20;;;13.80;99.90;;;;;;5008049;28;20453;-73
2023/05/03 06:40:26;;;;;;;1.70;0.70;;;14.50;99.90;;;;;;5018179;28;21040;-73
2023/05/03 06:42:53;;;;;;;1.60;0.70;;;14.70;99.90;;;;;;5016257;28;20445;-74
2023/05/03 06:45:25;;;;;;;3.42;1.58;;;15.20;99.90;;;;;;5015437;28;21015;-73
2023/05/03 06:47:53;;;;;;;1.00;1.00;;;14.80;99.90;;;;;;5011778;28;20430;-73
2023/05/03 06:50:21;;;;;;;0.75;0.65;;;14.70;99.90;;;;;;5021653;28;20442;-74
2023/05/03 06:52:47;;;;;;;1.55;1.45;;;14.50;99.90;;;;;;5012317;28;20431;-74
2023/05/03 06:55:17;;;;;;;3.35;1.52;;;14.30;99.90;;;;;;5017666;28;20430;-74
2023/05/03 06:57:48;;;;;;;1.27;1.00;;;14.40;99.90;;;;;;5016861;28;20430;-74
2023/05/03 07:00:16;;;;;;;0.80;0.80;;;14.70;99.90;;;;;;5010743;28;20444;-75
2023/05/03 07:02:45;;;;;;;0.73;0.73;;;14.50;99.90;;;;;;5016179;28;20963;-73
2023/05/03 07:05:12;;;;;;;1.27;0.90;;;14.60;99.90;;;;;;5022204;28;20789;-73
2023/05/03 07:07:39;;;;;;;0.77;0.77;;;14.80;99.90;;;;;;5022733;28;20499;-73
2023/05/03 07:10:07;;;;;;;1.10;1.00;;;14.30;99.90;;;;;;5022568;28;20427;-74
2023/05/03 07:12:34;;;;;;;1.00;1.00;;;14.00;99.90;;;;;;5015122;28;20993;-73
2023/05/03 07:15:01;;;;;;;0.93;0.93;;;13.90;99.90;;;;;;5014809;28;20442;-75
2023/05/03 07:17:28;;;;;;;0.88;0.82;;;13.90;99.90;;;;;;5018183;28;20848;-73
2023/05/03 07:19:56;;;;;;;1.63;1.02;;;13.90;99.90;;;;;;5008515;28;20443;-74
2023/05/03 07:22:26;;;;;;;1.30;1.20;;;13.90;99.90;;;;;;5021589;28;20437;-73
2023/05/03 07:24:53;;;;;;;2.20;0.70;;;14.00;99.90;;;;;;5012531;28;20441;-73
2023/05/03 07:27:20;;;;;;;0.60;0.60;;;14.30;99.90;;;;;;5020551;28;20480;-73
2023/05/03 07:29:50;;;;;;;0.80;0.80;;;14.70;99.90;;;;;;5014371;28;20993;-74
2023/05/03 07:32:17;;;;;;;0.98;0.90;;;15.00;99.90;;;;;;5023459;28;20426;-74
2023/05/03 07:34:43;;;;;;;3.28;1.52;;;15.20;99.90;;;;;;5020415;28;20439;-73
2023/05/03 07:37:10;;;;;;;0.90;0.90;;;14.80;99.90;;;;;;5022300;28;20441;-74
2023/05/03 07:39:38;;;;;;;1.30;0.80;;;15.20;99.90;;;;;;5017416;28;20751;-72
2023/05/03 07:42:06;;;;;;;1.70;1.02;;;14.90;99.90;;;;;;5022874;28;20798;-73
2023/05/03 07:44:33;;;;;;;1.70;0.77;;;15.20;99.90;;;;;;5021166;28;20439;-74
2023/05/03 07:46:59;;;;;;;1.40;1.13;;;15.00;99.90;;;;;;5018121;28;20434;-74
2023/05/03 07:49:26;;;;;;;1.88;0.95;;;14.90;99.90;;;;;;5017018;28;20434;-73
2023/05/03 07:51:53;;;;;;;4.40;1.20;;;14.80;99.90;;;;;;5018013;28;20434;-74
2023/05/03 07:54:20;;;;;;;1.45;1.13;;;14.80;99.90;;;;;;5020434;28;20806;-73
2023/05/03 07:56:46;;;;;;;1.00;0.90;;;14.70;99.90;;;;;;5021020;28;20442;-74
2023/05/03 07:59:13;;;;;;;0.75;0.75;;;15.40;99.90;;;;;;5016837;28;20434;-74
2023/05/03 08:01:40;;;;;;;0.87;0.87;;;15.70;99.90;;;;;;5021765;28;20430;-73
2023/05/03 08:04:07;;;;;;;0.80;0.80;;;15.00;99.90;;;;;;5020443;28;20727;-74
2023/05/03 08:06:41;;;;;;;1.20;0.93;;;15.50;99.90;;;;;;5009706;28;20793;-73
2023/05/03 08:09:11;;;;;;;3.60;1.10;;;16.00;99.90;;;;;;5024511;28;20436;-74
2023/05/03 08:11:37;;;;;;;1.23;1.13;;;16.30;99.90;;;;;;5017954;28;20431;-71
2023/05/03 08:14:06;;;;;;;0.90;0.90;;;16.50;99.90;;;;;;5014661;28;20461;-71
2023/05/03 08:16:32;;;;;;;0.70;0.60;;;16.90;99.90;;;;;;5025967;28;20484;-71
2023/05/03 08:19:00;;;;;;;0.70;0.70;;;17.00;99.90;;;;;;5024819;28;20825;-71
2023/05/03 08:21:27;;;;;;;0.85;0.85;;;17.30;99.90;;;;;;5018332;28;20513;-71
2023/05/03 08:23:54;;;;;;;1.50;1.08;;;17.00;99.90;;;;;;5023984;28;20510;-71
2023/05/03 08:26:21;;;;;;;1.80;1.00;;;16.90;99.90;;;;;;5026417;28;20427;-71
2023/05/03 08:28:50;;;;;;;2.15;0.93;;;16.40;99.90;;;;;;5016862;28;20435;-71
2023/05/03 08:31:18;;;;;;;1.60;0.98;;;15.60;99.90;;;;;;5017608;28;20495;-71
2023/05/03 08:33:45;;;;;;;1.20;1.00;;;15.80;99.90;;;;;;5019587;28;20795;-72
2023/05/03 08:36:14;;;;;;;1.58;1.15;;;15.50;99.90;;;;;;5018801;28;20431;-72
2023/05/03 08:38:41;;;;;;;0.93;0.93;;;14.60;99.90;;;;;;5020690;28;20447;-71
2023/05/03 08:41:25;;;;;;;1.40;1.00;;;15.30;99.90;;;;;;5026753;28;20441;-72
2023/05/03 08:43:54;;;;;;;1.20;0.65;;;15.70;99.90;;;;;;5015470;28;20439;-72
2023/05/03 08:46:21;;;;;;;0.85;0.85;;;16.10;99.90;;;;;;5023079;28;20947;-71
2023/05/03 08:48:51;;;;;;;1.00;0.85;;;16.20;99.90;;;;;;5022401;28;20434;-71
2023/05/03 08:51:20;;;;;;;0.95;0.93;;;16.30;99.90;;;;;;5020770;28;20446;-72
2023/05/03 08:53:49;;;;;;;0.82;0.82;;;16.80;99.90;;;;;;5030134;28;20422;-72
2023/05/03 08:56:28;;;;;;;1.07;0.90;;;17.20;99.90;;;;;;5027161;28;20949;-74
2023/05/03 08:58:56;;;;;;;0.90;0.90;;;17.40;99.90;;;;;;5021830;28;20439;-70
2023/05/03 09:01:23;;;;;;;1.35;0.88;;;17.90;99.90;;;;;;5022936;28;20442;-71
2023/05/03 09:03:51;;;;;;;1.10;1.00;;;18.00;99.90;;;;;;5015668;28;20864;-71
2023/05/03 09:06:20;;;;;;;1.10;1.00;;;17.80;99.90;;;;;;5016710;28;20518;-71
2023/05/03 09:08:47;;;;;;;0.90;0.90;;;17.80;99.90;;;;;;5017545;28;20458;-71
2023/05/03 09:11:30;;;;;;;0.85;0.85;;;17.90;99.90;;;;;;5017549;28;20464;-71
2023/05/03 09:14:17;;;;;;;0.98;0.98;;;18.10;99.90;;;;;;5024241;28;20445;-71
2023/05/03 09:16:46;;;;;;;2.17;1.00;;;18.30;99.90;;;;;;5017244;28;20443;-72
2023/05/03 09:19:14;;;;;;;1.38;1.25;;;18.40;99.90;;;;;;5024437;28;20951;-71
2023/05/03 09:21:45;;;;;;;2.70;0.90;;;18.40;99.90;;;;;;5023890;28;20534;-72
2023/05/03 09:24:21;;;;;;;2.83;1.15;;;18.50;99.90;;;;;;5023008;28;20435;-71
2023/05/03 09:26:52;;;;;;;1.10;1.10;;;18.50;99.90;;;;;;5012965;28;20435;-72
2023/05/03 09:29:35;;;;;;;1.48;1.20;;;18.70;99.90;;;;;;5018733;28;20512;-72
2023/05/03 09:32:04;;;;;;;1.23;1.13;;;18.00;99.90;;;;;;5025343;28;20430;-71
2023/05/03 09:34:32;;;;;;;1.00;0.90;;;18.10;99.90;;;;;;5018804;28;20549;-71
2023/05/03 09:36:59;;;;;;;1.10;1.00;;;18.50;99.90;;;;;;5022672;28;20506;-71
2023/05/03 09:39:26;;;;;;;1.58;1.02;;;18.30;99.90;;;;;;5024531;28;20466;-71
2023/05/03 09:41:53;;;;;;;1.13;1.10;;;18.70;99.90;;;;;;5008585;28;20436;-72
2023/05/03 09:44:43;;;;;;;1.77;1.23;;;18.90;99.90;;;;;;5019232;28;20450;-71
2023/05/03 09:47:10;;;;;;;1.20;1.10;;;18.90;99.90;;;;;;5019892;28;20828;-72
2023/05/03 09:49:38;;;;;;;1.15;1.00;;;18.60;99.90;;;;;;5027903;28;20438;-72
2023/05/03 09:52:06;;;;;;;0.93;0.93;;;18.60;99.90;;;;;;5027604;28;20509;-71
2023/05/03 09:54:35;;;;;;;0.80;0.80;;;18.90;99.90;;;;;;5018876;28;20455;-71
2023/05/03 09:57:06;;;;;;;1.52;1.33;;;18.90;99.90;;;;;;5020961;28;20469;-71
2023/05/03 09:59:35;;;;;;;2.63;1.02;;;18.70;99.90;;;;;;5025659;28;20522;-71
2023/05/03 10:02:04;;;;;;;1.17;1.08;;;19.00;99.90;;;;;;5023595;28;20435;-71
2023/05/03 10:04:43;;;;;;;1.05;0.88;;;19.20;99.90;;;;;;5018528;28;20499;-71
2023/05/03 10:07:13;;;;;;;1.00;0.90;;;19.00;99.90;;;;;;5024055;28;20435;-71
2023/05/03 10:09:45;;;;;;;1.02;0.93;;;18.80;99.90;;;;;;5027695;28;20446;-71
2023/05/03 10:12:15;;;;;;;4.20;0.98;;;19.10;99.90;;;;;;5027249;28;20435;-71
2023/05/03 10:14:45;;;;;;;1.10;0.95;;;18.90;99.90;;;;;;5025886;28;20471;-71
2023/05/03 10:17:15;;;;;;;1.05;1.05;;;19.10;99.90;;;;;;5027293;28;20437;-71
2023/05/03 10:20:06;;;;;;;1.90;1.10;;;18.90;99.90;;;;;;5026682;28;20438;-71
2023/05/03 10:23:09;;;;;;;3.17;1.63;;;19.00;99.90;;;;;;5027200;28;20851;-71
2023/05/03 10:25:38;;;;;;;2.15;1.15;;;19.00;99.90;;;;;;5020384;28;20852;-71
2023/05/03 10:28:08;;;;;;;1.08;1.05;;;19.10;99.90;;;;;;5026625;28;20463;-71
2023/05/03 10:30:39;;;;;;;1.20;0.93;;;19.30;99.90;;;;;;5026176;28;20890;-71
2023/05/03 10:33:12;;;;;;;1.10;1.00;;;19.10;99.90;;;;;;5026101;28;20498;-71
2023/05/03 10:35:41;;;;;;;1.20;1.10;;;19.60;99.90;;;;;;5017129;28;20509;-71
2023/05/03 10:38:16;;;;;;;2.10;1.20;;;20.00;99.90;;;;;;5018975;28;20489;-71
2023/05/03 10:40:46;;;;;;;1.03;1.03;;;20.30;99.90;;;;;;5021250;28;20426;-71
2023/05/03 10:43:28;;;;;;;1.20;1.10;;;20.30;99.90;;;;;;5025890;28;20639;-71
2023/05/03 10:46:07;;;;;;;0.95;0.95;;;20.00;99.90;;;;;;5014566;28;20913;-71
2023/05/03 10:48:34;;;;;;;1.30;1.20;;;19.70;99.90;;;;;;5023935;28;20426;-72
2023/05/03 10:51:31;;;;;;;4.72;1.50;;;19.70;99.90;;;;;;5026079;28;20514;-71
2023/05/03 10:53:58;;;;;;;1.27;1.17;;;19.50;99.90;;;;;;5019134;28;20439;-71
2023/05/03 10:56:28;;;;;;;1.33;1.23;;;19.80;99.90;;;;;;5015745;28;20443;-71
2023/05/03 10:58:57;;;;;;;2.00;1.45;;;19.90;99.90;;;;;;5026080;28;20434;-71
2023/05/03 11:01:26;;;;;;;0.98;0.98;;;19.90;99.90;;;;;;5025109;28;20774;-71
2023/05/03 11:04:12;;;;;;;2.10;1.30;;;20.00;99.90;;;;;;5022776;28;20945;-72
2023/05/03 11:06:40;;;;;;;0.88;0.88;;;20.00;99.90;;;;;;5017904;28;20434;-71
2023/05/03 11:09:10;;;;;;;2.10;1.13;;;19.80;99.90;;;;;;5022612;28;20458;-70
2023/05/03 11:11:40;;;;;;;0.82;0.82;;;19.80;99.90;;;;;;5021100;28;20518;-72
2023/05/03 11:14:08;;;;;;;1.20;1.00;;;19.80;99.90;;;;;;5021767;28;20422;-72
2023/05/03 11:16:35;;;;;;;0.70;0.70;;;19.70;99.90;;;;;;5025022;28;20459;-72
2023/05/03 11:19:04;;;;;;;1.77;1.20;;;19.50;99.90;;;;;;5015622;28;20440;-72
2023/05/03 11:21:32;;;;;;;1.27;1.00;;;19.70;99.90;;;;;;5012733;28;20955;-72
2023/05/03 11:24:00;;;;;;;1.07;1.03;;;19.50;99.90;;;;;;5015456;28;20439;-71
2023/05/03 11:26:27;;;;;;;0.93;0.82;;;19.90;99.90;;;;;;5016356;28;20435;-72
2023/05/03 11:28:53;;;;;;;2.30;1.00;;;20.40;99.90;;;;;;5021921;28;20434;-71
2023/05/03 11:31:21;;;;;;;2.63;0.93;;;20.50;99.90;;;;;;5023259;28;20415;-70
2023/05/03 11:33:52;;;;;;;1.63;1.10;;;20.50;99.90;;;;;;5004610;28;20811;-72
2023/05/03 11:36:19;;;;;;;0.90;0.90;;;20.20;99.90;;;;;;5022543;28;20453;-71
2023/05/03 11:38:46;;;;;;;1.02;0.88;;;20.20;99.90;;;;;;5018876;28;20446;-71
2023/05/03 11:41:15;;;;;;;0.80;0.80;;;20.50;99.90;;;;;;5016351;28;20495;-72
2023/05/03 11:43:44;;;;;;;0.65;0.63;;;20.70;99.90;;;;;;5012247;28;20429;-72
2023/05/03 11:46:14;;;;;;;0.80;0.80;;;20.40;99.90;;;;;;5020781;28;20431;-72
2023/05/03 11:48:46;;;;;;;1.60;1.08;;;20.10;99.90;;;;;;5021561;28;20525;-72
2023/05/03 11:51:20;;;;;;;0.75;0.75;;;20.10;99.90;;;;;;5022798;28;20455;-70
2023/05/03 11:53:47;;;;;;;1.08;0.98;;;20.40;99.90;;;;;;5027841;28;20474;-73
2023/05/03 11:56:17;;;;;;;0.98;0.98;;;20.20;99.90;;;;;;5023350;28;20923;-71
2023/05/03 11:58:58;;;;;;;1.40;1.30;;;20.50;99.90;;;;;;5022079;28;20451;-70
2023/05/03 12:01:28;;;;;;;2.97;0.93;;;20.70;99.90;;;;;;5027123;28;20439;-71
2023/05/03 12:04:00;;;;;;;0.93;0.90;;;20.60;99.90;;;;;;5025200;28;20680;-71
2023/05/03 12:06:32;;;;;;;1.60;0.80;;;20.80;99.90;;;;;;5024321;28;20434;-72
2023/05/03 12:09:02;;;;;;;1.23;1.05;;;20.70;99.90;;;;;;5023109;28;20435;-72
2023/05/03 12:11:29;;;;;;;1.45;1.00;;;20.60;99.90;;;;;;5021536;28;20586;-72
2023/05/03 12:14:01;;;;;;;1.10;1.00;;;20.90;99.90;;;;;;5017589;28;20453;-72
2023/05/03 12:16:48;;;;;;;1.30;1.20;;;21.10;99.90;;;;;;5024208;28;20981;-72
2023/05/03 12:19:27;;;;;;;1.27;0.82;;;21.10;99.90;;;;;;5021481;28;20433;-71
2023/05/03 12:21:58;;;;;;;0.93;0.83;;;21.00;99.90;;;;;;5022622;28;20490;-71
2023/05/03 12:24:45;;;;;;;1.30;1.02;;;20.90;99.90;;;;;;5021835;28;20422;-72
2023/05/03 12:27:27;;;;;;;3.50;1.20;;;20.80;99.90;;;;;;5013904;28;20638;-72
2023/05/03 12:29:58;;;;;;;0.73;0.73;;;20.90;99.90;;;;;;5012504;28;20424;-72
2023/05/03 12:32:27;;;;;;;1.23;1.13;;;20.70;99.90;;;;;;5017878;28;20465;-73
2023/05/03 12:34:56;;;;;;;0.70;0.70;;;20.30;99.90;;;;;;5024542;28;20438;-70
2023/05/03 12:37:27;;;;;;;1.30;0.68;;;20.60;99.90;;;;;;5026044;28;20517;-72
2023/05/03 12:40:03;;;;;;;0.90;0.90;;;20.70;99.90;;;;;;5018432;28;20439;-71
2023/05/03 12:42:38;;;;;;;0.80;0.80;;;20.70;99.90;;;;;;5012419;28;20444;-72
2023/05/03 12:45:10;;;;;;;0.70;0.70;;;20.60;99.90;;;;;;5013967;28;20431;-72
2023/05/03 12:47:38;;;;;;;1.10;0.80;;;20.80;99.90;;;;;;5018147;28;20423;-72
2023/05/03 12:50:10;;;;;;;0.73;0.73;;;20.90;99.90;;;;;;5019189;28;20427;-72
2023/05/03 12:52:38;;;;;;;0.95;0.85;;;20.90;99.90;;;;;;5024167;28;20493;-72
2023/05/03 12:55:10;;;;;;;1.17;1.10;;;21.10;99.90;;;;;;5025116;28;20909;-73
2023/05/03 12:57:45;;;;;;;0.88;0.88;;;21.20;99.90;;;;;;5023768;28;20518;-73
2023/05/03 13:00:32;;;;;;;0.60;0.60;;;21.20;99.90;;;;;;5014867;28;20427;-73
2023/05/03 13:03:02;;;;;;;2.15;0.90;;;21.50;99.90;;;;;;5020017;28;20636;-72
2023/05/03 13:05:35;;;;;;;0.90;0.90;;;21.60;99.90;;;;;;5022790;28;20506;-73